Time;durP1;ratioP1;P1;durP2;ratioP2;P2;SDS_P1;SDS_P2;PMS_P1;PMS_P2;Temp;Humidity;BMP_temperature;BMP_pressure;BME280_temperature;BME280_humidity;BME280_pressure;Samples;Min_cycle;Max_cycle;Signal;HPM_P1;HPM_P2
2021/12/12 00:01:23;;;;;;;12.18;4.50;;;10.50;80.10;;;;;;4963992;28;20097;-94
2021/12/12 00:03:56;;;;;;;13.50;4.93;;;10.50;80.10;;;;;;4967476;28;20533;-94
2021/12/12 00:06:31;;;;;;;14.15;4.40;;;10.50;80.10;;;;;;4956450;28;20499;-92
2021/12/12 00:09:05;;;;;;;15.15;4.97;;;10.60;80.20;;;;;;4971748;28;20046;-93
2021/12/12 00:11:34;;;;;;;12.37;4.63;;;11.10;80.50;;;;;;4978359;28;20026;-94
2021/12/12 00:14:27;;;;;;;15.05;4.35;;;10.60;80.20;;;;;;4969985;28;20037;-94
2021/12/12 00:16:56;;;;;;;12.70;3.95;;;10.60;80.20;;;;;;4980082;28;20034;-91
2021/12/12 00:19:24;;;;;;;12.00;4.32;;;10.80;80.40;;;;;;4962917;28;20068;-94
2021/12/12 00:21:55;;;;;;;12.75;4.60;;;10.60;80.30;;;;;;4991909;28;20125;-93
2021/12/12 00:24:21;;;;;;;14.57;4.10;;;10.60;80.30;;;;;;4968636;28;20046;-93
2021/12/12 00:26:49;;;;;;;10.93;4.03;;;10.60;80.30;;;;;;4948768;28;20039;-94
2021/12/12 00:29:17;;;;;;;17.15;4.85;;;10.60;80.30;;;;;;4951346;28;20038;-94
2021/12/12 00:31:45;;;;;;;12.00;4.03;;;11.10;80.70;;;;;;4951838;28;20050;-94
2021/12/12 00:34:11;;;;;;;11.38;3.40;;;10.60;80.30;;;;;;4964095;28;20027;-94
2021/12/12 00:36:40;;;;;;;10.23;3.95;;;10.60;80.40;;;;;;4961124;28;20042;-94
2021/12/12 00:39:16;;;;;;;11.02;4.95;;;10.70;80.40;;;;;;4977618;28;20041;-94
2021/12/12 00:41:53;;;;;;;13.82;4.32;;;10.70;80.50;;;;;;4979515;28;20034;-94
2021/12/12 00:44:19;;;;;;;13.38;3.70;;;10.70;80.40;;;;;;4974095;28;20508;-93
2021/12/12 00:46:45;;;;;;;11.80;3.53;;;10.70;80.50;;;;;;4959419;28;20993;-95
2021/12/12 00:49:12;;;;;;;11.68;4.18;;;10.70;80.40;;;;;;4978285;28;20061;-95
2021/12/12 00:51:41;;;;;;;9.88;3.75;;;10.90;80.60;;;;;;4971125;28;20045;-95
2021/12/12 00:54:09;;;;;;;10.75;3.97;;;10.70;80.50;;;;;;4956481;28;20572;-94
2021/12/12 00:56:35;;;;;;;9.48;3.60;;;10.70;80.60;;;;;;4976203;28;20063;-94
2021/12/12 00:59:03;;;;;;;11.90;4.57;;;10.70;80.70;;;;;;4957034;28;20587;-94
2021/12/12 01:01:35;;;;;;;11.60;4.50;;;10.70;80.60;;;;;;4978387;28;20117;-93
2021/12/12 01:04:10;;;;;;;8.18;3.70;;;11.20;80.90;;;;;;4969477;28;20026;-93
2021/12/12 01:06:36;;;;;;;9.57;4.07;;;10.70;80.60;;;;;;4991359;28;20499;-94
2021/12/12 01:09:09;;;;;;;8.70;4.18;;;10.70;80.70;;;;;;4962769;28;20120;-95
2021/12/12 01:11:41;;;;;;;9.30;3.88;;;10.70;80.70;;;;;;4995312;28;20022;-92
2021/12/12 01:14:13;;;;;;;10.93;3.63;;;10.80;80.80;;;;;;4976227;28;20585;-91
2021/12/12 01:17:04;;;;;;;7.72;3.30;;;11.20;81.00;;;;;;4983218;28;20042;-93
2021/12/12 01:19:50;;;;;;;8.75;4.10;;;10.80;80.80;;;;;;4967987;28;20507;-92
2021/12/12 01:22:25;;;;;;;9.73;3.67;;;10.80;80.80;;;;;;4960650;28;20631;-93
2021/12/12 01:24:53;;;;;;;9.88;3.45;;;11.10;80.90;;;;;;5020921;28;20041;-94
2021/12/12 01:27:20;;;;;;;8.98;3.33;;;10.80;80.80;;;;;;5016836;28;20685;-93
2021/12/12 01:29:49;;;;;;;10.95;4.03;;;10.80;81.40;;;;;;5006193;28;20042;-94
2021/12/12 01:32:25;;;;;;;9.35;4.07;;;10.80;80.80;;;;;;4985760;28;20061;-93
2021/12/12 01:34:52;;;;;;;9.68;3.58;;;10.80;80.80;;;;;;4989770;28;20450;-94
2021/12/12 01:37:36;;;;;;;9.55;3.25;;;10.80;80.90;;;;;;4994659;28;20038;-92
2021/12/12 01:40:26;;;;;;;6.90;3.53;;;10.80;80.90;;;;;;4998817;28;20116;-93
2021/12/12 01:43:01;;;;;;;6.43;3.50;;;10.80;81.00;;;;;;4991081;28;20031;-94
2021/12/12 01:45:33;;;;;;;6.90;2.75;;;10.80;81.00;;;;;;4987358;28;20053;-92
2021/12/12 01:48:14;;;;;;;6.28;3.33;;;10.80;81.00;;;;;;4984076;28;20038;-93
2021/12/12 01:50:49;;;;;;;7.65;3.63;;;10.80;81.10;;;;;;5006331;28;20124;-93
2021/12/12 01:53:22;;;;;;;8.25;3.63;;;10.80;81.00;;;;;;4990697;28;20041;-94
2021/12/12 01:55:53;;;;;;;13.43;4.60;;;11.20;81.20;;;;;;4969752;28;20468;-93
2021/12/12 01:58:24;;;;;;;10.05;3.13;;;10.80;81.00;;;;;;5015163;28;20038;-94
2021/12/12 02:01:11;;;;;;;6.97;2.70;;;10.80;81.00;;;;;;4989037;28;20108;-95
2021/12/12 02:03:46;;;;;;;11.15;4.50;;;10.80;81.00;;;;;;5011092;28;20038;-94
2021/12/12 02:06:15;;;;;;;6.55;3.40;;;11.00;81.10;;;;;;5004103;28;20034;-92
2021/12/12 02:08:42;;;;;;;10.20;3.42;;;10.80;81.00;;;;;;4982847;28;20089;-94
2021/12/12 02:11:16;;;;;;;10.02;3.65;;;11.00;81.10;;;;;;4991477;28;20562;-94
2021/12/12 02:13:48;;;;;;;7.85;3.95;;;11.10;81.10;;;;;;4984873;28;20057;-91
2021/12/12 02:16:15;;;;;;;11.80;4.68;;;10.80;81.50;;;;;;4993858;28;20027;-95
2021/12/12 02:18:47;;;;;;;8.63;3.63;;;10.80;81.60;;;;;;4977601;28;20034;-94
2021/12/12 02:21:36;;;;;;;12.95;4.15;;;10.80;81.00;;;;;;4994997;28;20042;-91
2021/12/12 02:35:09;;;;;;;7.97;3.85;;;10.90;81.00;;;;;;5000889;28;20088;-93
2021/12/12 02:37:36;;;;;;;10.73;3.78;;;11.30;81.80;;;;;;4996786;28;20056;-93
2021/12/12 02:40:07;;;;;;;9.85;4.90;;;10.90;80.90;;;;;;5002054;28;20046;-94
2021/12/12 02:42:33;;;;;;;12.20;4.75;;;10.90;81.00;;;;;;4964429;28;20038;-94
2021/12/12 02:45:01;;;;;;;14.93;5.20;;;11.20;81.20;;;;;;4992793;28;20041;-94
2021/12/12 02:47:34;;;;;;;12.45;4.60;;;10.90;81.00;;;;;;4974392;28;20049;-93
2021/12/12 02:50:23;;;;;;;12.77;5.13;;;10.90;81.00;;;;;;4987013;28;20043;-94
2021/12/12 02:53:03;;;;;;;11.05;4.60;;;11.10;81.10;;;;;;4984752;28;20040;-93
2021/12/12 02:55:35;;;;;;;13.43;7.30;;;11.20;81.10;;;;;;5006647;28;20108;-94
2021/12/12 02:58:04;;;;;;;14.35;6.47;;;11.40;81.30;;;;;;4992645;28;20058;-93
2021/12/12 03:00:36;;;;;;;11.85;5.45;;;11.00;81.00;;;;;;5013070;28;20275;-92
2021/12/12 03:03:02;;;;;;;10.20;4.13;;;11.00;81.00;;;;;;5009957;28;20134;-94
2021/12/12 03:05:35;;;;;;;8.25;3.60;;;11.00;81.00;;;;;;4995681;28;20446;-93
2021/12/12 03:08:01;;;;;;;9.95;3.83;;;11.40;81.30;;;;;;4975034;28;20034;-93
2021/12/12 03:10:33;;;;;;;8.45;4.57;;;11.00;81.10;;;;;;4998047;28;20121;-93
2021/12/12 03:13:00;;;;;;;9.55;5.13;;;11.00;81.10;;;;;;4969399;28;20467;-93
2021/12/12 03:15:30;;;;;;;9.57;3.80;;;11.00;81.10;;;;;;4989190;28;20169;-91
2021/12/12 03:18:00;;;;;;;9.63;4.10;;;11.00;81.10;;;;;;5007488;28;20050;-91
2021/12/12 03:20:35;;;;;;;9.93;4.43;;;11.00;81.10;;;;;;4974845;28;20054;-91
2021/12/12 03:23:37;;;;;;;10.57;4.90;;;11.10;81.20;;;;;;4973597;28;20512;-94
2021/12/12 03:26:08;;;;;;;10.65;4.15;;;11.00;81.20;;;;;;4968580;28;20388;-94
2021/12/12 03:28:39;;;;;;;10.90;4.93;;;11.00;81.20;;;;;;4966425;28;20038;-94
2021/12/12 03:31:14;;;;;;;9.63;3.60;;;11.00;81.20;;;;;;4959836;28;20038;-94
2021/12/12 03:33:41;;;;;;;10.73;4.15;;;11.10;81.30;;;;;;4952099;28;20057;-94
2021/12/12 03:36:09;;;;;;;11.07;3.97;;;11.10;81.40;;;;;;4972974;28;20035;-93
2021/12/12 03:38:39;;;;;;;8.63;3.97;;;11.00;81.30;;;;;;4978334;28;20042;-94
2021/12/12 03:41:09;;;;;;;12.05;4.18;;;11.10;81.40;;;;;;4959831;28;20046;-93
2021/12/12 03:43:36;;;;;;;11.65;4.35;;;11.10;81.50;;;;;;4964707;28;20081;-94
2021/12/12 03:46:06;;;;;;;7.95;4.00;;;11.20;81.60;;;;;;4945657;28;20077;-93
2021/12/12 03:48:33;;;;;;;7.25;3.78;;;11.10;81.60;;;;;;4969145;28;20530;-93
2021/12/12 03:51:04;;;;;;;8.93;3.40;;;11.10;81.60;;;;;;4979514;28;20577;-93
2021/12/12 03:53:32;;;;;;;7.32;3.90;;;11.10;81.60;;;;;;4981499;28;20073;-94
2021/12/12 03:55:59;;;;;;;7.15;3.53;;;11.10;81.60;;;;;;4964895;28;20038;-94
2021/12/12 03:58:25;;;;;;;10.82;3.65;;;11.10;81.70;;;;;;4974318;28;20041;-92
2021/12/12 04:01:20;;;;;;;6.88;4.13;;;11.10;81.70;;;;;;4976257;28;20037;-93
2021/12/12 04:03:48;;;;;;;7.25;3.38;;;11.10;81.70;;;;;;4980989;28;20042;-93
2021/12/12 04:06:18;;;;;;;9.88;3.78;;;11.20;81.80;;;;;;4960938;28;20041;-94
2021/12/12 04:08:48;;;;;;;8.32;3.63;;;11.10;81.70;;;;;;4976286;28;20047;-93
2021/12/12 04:11:27;;;;;;;6.78;3.20;;;11.30;81.90;;;;;;4955557;28;20026;-94
2021/12/12 04:13:55;;;;;;;7.97;3.58;;;11.70;82.10;;;;;;4953800;28;20420;-93
2021/12/12 04:16:24;;;;;;;7.63;3.35;;;11.60;82.10;;;;;;4980919;28;20081;-93
2021/12/12 04:18:49;;;;;;;6.32;3.17;;;11.20;81.90;;;;;;4943926;28;20093;-94
2021/12/12 04:21:19;;;;;;;7.95;3.50;;;11.20;81.90;;;;;;4984459;28;20033;-94
2021/12/12 04:23:45;;;;;;;6.72;3.33;;;11.20;81.90;;;;;;4966648;28;20145;-94
2021/12/12 04:26:20;;;;;;;5.15;2.95;;;11.20;82.00;;;;;;4971594;28;20043;-94
2021/12/12 04:29:13;;;;;;;6.65;3.45;;;11.20;82.00;;;;;;4988221;28;20105;-92
2021/12/12 04:31:44;;;;;;;6.50;2.95;;;11.20;82.00;;;;;;4966653;28;20038;-95
2021/12/12 04:34:10;;;;;;;8.93;4.50;;;11.20;82.00;;;;;;4994892;28;20034;-92
2021/12/12 04:36:44;;;;;;;8.63;3.63;;;11.20;82.10;;;;;;4994053;28;20237;-94
2021/12/12 04:39:14;;;;;;;9.98;4.50;;;11.70;82.30;;;;;;4977675;28;20041;-94
2021/12/12 04:41:43;;;;;;;14.93;5.18;;;11.20;82.10;;;;;;4988226;28;20045;-94
2021/12/12 04:44:10;;;;;;;9.50;3.55;;;11.20;82.10;;;;;;4973374;28;20056;-94
2021/12/12 04:52:33;;;;;;;4.28;2.40;;;11.20;82.20;;;;;;4978434;28;20040;-93
2021/12/12 04:55:28;;;;;;;4.97;2.47;;;11.20;82.20;;;;;;5002860;28;20064;-93
2021/12/12 04:58:33;;;;;;;4.93;2.25;;;11.20;82.20;;;;;;4982853;28;20026;-94
2021/12/12 05:01:25;;;;;;;3.08;2.05;;;11.20;82.20;;;;;;4990519;28;20036;-94
2021/12/12 05:03:55;;;;;;;5.30;2.50;;;11.20;82.20;;;;;;4965552;28;20034;-94
2021/12/12 05:07:06;;;;;;;4.40;2.15;;;11.20;82.20;;;;;;4970290;28;20522;-94
2021/12/12 05:10:05;;;;;;;4.03;2.10;;;11.20;82.30;;;;;;4977859;28;20037;-93
2021/12/12 05:12:57;;;;;;;4.10;1.98;;;11.20;82.30;;;;;;4998748;28;20113;-93
2021/12/12 05:15:35;;;;;;;4.55;2.20;;;11.30;82.40;;;;;;4988671;28;20087;-94
2021/12/12 05:18:30;;;;;;;5.18;2.33;;;11.20;82.30;;;;;;4972181;28;20543;-91
2021/12/12 05:21:10;;;;;;;4.70;2.47;;;11.30;82.40;;;;;;4988366;28;20515;-93
2021/12/12 05:23:43;;;;;;;5.72;2.40;;;11.30;82.40;;;;;;5002650;28;20356;-93
2021/12/12 05:26:19;;;;;;;5.40;2.63;;;11.30;82.40;;;;;;5003296;28;20062;-92
2021/12/12 05:29:00;;;;;;;5.95;2.83;;;11.30;82.40;;;;;;4986583;28;20048;-94
2021/12/12 05:31:27;;;;;;;5.30;2.72;;;11.30;82.40;;;;;;4984960;28;20045;-94
2021/12/12 05:33:55;;;;;;;7.80;2.90;;;11.50;82.60;;;;;;4965576;28;20475;-93
2021/12/12 05:36:21;;;;;;;5.55;3.30;;;11.30;82.60;;;;;;4987050;28;20026;-93
2021/12/12 05:38:48;;;;;;;6.88;3.30;;;11.30;82.60;;;;;;4978831;28;20030;-93
2021/12/12 05:41:18;;;;;;;6.03;2.88;;;11.30;82.70;;;;;;4969431;28;20092;-93
2021/12/12 05:43:45;;;;;;;7.82;3.55;;;11.60;82.80;;;;;;4974760;28;20559;-93
2021/12/12 05:46:15;;;;;;;6.10;3.08;;;11.30;82.70;;;;;;4999864;28;20577;-93
2021/12/12 05:48:44;;;;;;;7.32;2.53;;;11.30;82.70;;;;;;4996323;28;20130;-95
2021/12/12 05:51:11;;;;;;;7.22;2.95;;;11.30;82.80;;;;;;4999993;28;20128;-93
2021/12/12 05:53:37;;;;;;;4.63;2.33;;;11.30;82.80;;;;;;4994079;28;20056;-93
2021/12/12 05:56:04;;;;;;;4.57;2.80;;;11.30;82.90;;;;;;5000268;28;20550;-91
2021/12/12 05:58:31;;;;;;;5.88;2.65;;;11.30;82.90;;;;;;4981827;28;20064;-94
2021/12/12 06:01:07;;;;;;;6.32;2.20;;;11.50;83.00;;;;;;4985603;28;20080;-93
2021/12/12 06:03:38;;;;;;;4.20;2.28;;;11.30;82.90;;;;;;4975269;28;20121;-91
2021/12/12 06:06:14;;;;;;;7.60;2.75;;;11.30;82.90;;;;;;4997717;28;20518;-91
2021/12/12 06:08:42;;;;;;;5.18;2.55;;;11.30;82.90;;;;;;4992207;28;20034;-93
2021/12/12 06:11:09;;;;;;;5.25;2.53;;;11.30;82.90;;;;;;5014077;28;20045;-94
2021/12/12 06:13:37;;;;;;;5.88;3.15;;;11.30;83.00;;;;;;4994291;28;20066;-93
2021/12/12 06:16:03;;;;;;;5.10;2.80;;;11.30;83.00;;;;;;4979665;28;20033;-92
2021/12/12 06:18:31;;;;;;;7.35;2.83;;;11.30;83.00;;;;;;4988837;28;20045;-93
2021/12/12 06:20:58;;;;;;;5.15;2.25;;;11.30;83.00;;;;;;4986529;28;20407;-94
2021/12/12 06:23:25;;;;;;;7.82;2.78;;;11.80;83.40;;;;;;4965141;28;20257;-93
2021/12/12 06:25:51;;;;;;;5.25;2.63;;;11.30;83.10;;;;;;4984175;28;20128;-93
2021/12/12 06:28:26;;;;;;;5.35;2.55;;;11.50;83.20;;;;;;4978407;28;20038;-93
2021/12/12 06:30:52;;;;;;;6.18;2.55;;;11.40;83.10;;;;;;4986621;28;20515;-94
2021/12/12 06:33:18;;;;;;;5.97;2.83;;;11.30;83.00;;;;;;4985425;28;20037;-94
2021/12/12 06:35:44;;;;;;;5.70;2.28;;;11.40;83.10;;;;;;5003690;28;20065;-94
2021/12/12 06:38:12;;;;;;;7.35;3.00;;;11.50;83.30;;;;;;4991839;28;20045;-94
2021/12/12 06:40:40;;;;;;;5.43;2.25;;;11.30;83.10;;;;;;4974108;28;20033;-92
2021/12/12 06:43:10;;;;;;;6.57;3.05;;;11.30;83.20;;;;;;4985575;28;20112;-93
2021/12/12 06:45:36;;;;;;;6.95;3.08;;;11.30;83.20;;;;;;4973753;28;20066;-94
2021/12/12 06:48:08;;;;;;;7.25;2.97;;;11.30;83.30;;;;;;4965920;28;20034;-93
2021/12/12 06:50:37;;;;;;;5.57;3.10;;;11.30;83.40;;;;;;4985225;28;20232;-93
2021/12/12 06:53:04;;;;;;;6.10;3.05;;;11.30;83.30;;;;;;4975795;28;20105;-92
2021/12/12 06:55:31;;;;;;;5.93;2.80;;;11.30;83.30;;;;;;4994767;28;20108;-93
2021/12/12 06:57:57;;;;;;;5.88;2.63;;;11.50;83.50;;;;;;4978341;28;20040;-94
2021/12/12 07:00:25;;;;;;;6.53;2.70;;;11.60;83.60;;;;;;4971114;28;20033;-93
2021/12/12 07:02:51;;;;;;;6.63;3.47;;;11.30;83.40;;;;;;4969656;28;20044;-92
2021/12/12 07:05:24;;;;;;;7.35;3.17;;;11.40;83.50;;;;;;4968102;28;20037;-94
2021/12/12 07:07:52;;;;;;;6.80;3.00;;;11.30;83.50;;;;;;4984245;28;20037;-92
2021/12/12 07:10:21;;;;;;;7.50;3.10;;;11.40;83.60;;;;;;4972121;28;20042;-94
2021/12/12 07:12:53;;;;;;;5.85;3.03;;;11.40;83.50;;;;;;4997309;28;20487;-93
2021/12/12 07:15:27;;;;;;;6.57;3.00;;;11.30;83.60;;;;;;4968082;28;20042;-94
2021/12/12 07:18:00;;;;;;;6.53;3.00;;;11.40;83.60;;;;;;4989166;28;20036;-93
2021/12/12 07:20:27;;;;;;;7.97;3.70;;;11.40;83.60;;;;;;4957513;28;20322;-94
2021/12/12 07:22:53;;;;;;;6.22;3.17;;;11.30;83.60;;;;;;4952124;28;20031;-93
2021/12/12 07:25:20;;;;;;;5.65;2.85;;;11.30;83.60;;;;;;4962322;28;20074;-92
2021/12/12 07:27:50;;;;;;;6.53;3.05;;;11.40;83.70;;;;;;4975436;28;20036;-92
2021/12/12 07:30:15;;;;;;;6.43;2.78;;;11.60;83.80;;;;;;4974467;28;20046;-93
2021/12/12 07:32:42;;;;;;;6.57;3.60;;;11.70;83.90;;;;;;4971043;28;20050;-93
2021/12/12 07:35:13;;;;;;;8.18;3.88;;;11.50;83.80;;;;;;4958599;28;20034;-93
2021/12/12 07:37:40;;;;;;;7.72;3.60;;;11.40;83.80;;;;;;4965252;28;20085;-94
2021/12/12 07:40:08;;;;;;;9.35;4.32;;;11.50;83.90;;;;;;4971634;28;20033;-92
2021/12/12 07:42:34;;;;;;;6.95;3.30;;;11.40;83.80;;;;;;4972164;28;20010;-93
2021/12/12 07:45:02;;;;;;;7.43;3.80;;;11.40;83.80;;;;;;4978500;28;20165;-93
2021/12/12 07:47:29;;;;;;;8.15;4.25;;;11.40;83.80;;;;;;4986748;28;20022;-93
2021/12/12 07:49:56;;;;;;;6.20;3.63;;;11.40;83.90;;;;;;4947211;28;20415;-94
2021/12/12 07:52:25;;;;;;;6.80;4.38;;;11.40;83.80;;;;;;4950954;28;20474;-93
2021/12/12 07:54:53;;;;;;;6.97;3.65;;;11.40;83.80;;;;;;4965801;28;20443;-93
2021/12/12 07:57:20;;;;;;;7.03;3.53;;;11.40;83.90;;;;;;4972630;28;20030;-94
2021/12/12 07:59:47;;;;;;;8.18;4.35;;;11.40;83.90;;;;;;4962566;28;20061;-93
2021/12/12 08:02:16;;;;;;;8.43;4.57;;;11.60;84.00;;;;;;4992680;28;20077;-94
2021/12/12 08:04:42;;;;;;;12.45;7.20;;;11.40;83.90;;;;;;4965409;28;20128;-93
2021/12/12 08:07:17;;;;;;;9.23;4.88;;;11.40;84.40;;;;;;4982236;28;20038;-93
2021/12/12 08:09:44;;;;;;;10.35;5.47;;;11.40;83.90;;;;;;4950697;28;20042;-94
2021/12/12 08:12:15;;;;;;;10.48;5.47;;;11.40;83.90;;;;;;4950341;28;20041;-93
2021/12/12 08:14:41;;;;;;;7.80;4.75;;;11.70;84.10;;;;;;4963982;28;20053;-94
2021/12/12 08:17:09;;;;;;;7.65;4.40;;;11.60;84.10;;;;;;4957149;28;20053;-92
2021/12/12 08:19:35;;;;;;;7.50;4.20;;;11.50;84.00;;;;;;4957324;28;20145;-91
2021/12/12 08:22:09;;;;;;;11.90;5.82;;;11.80;84.20;;;;;;4967792;28;20042;-93
2021/12/12 08:24:37;;;;;;;8.20;4.22;;;11.70;84.10;;;;;;4945886;28;20047;-92
2021/12/12 08:27:09;;;;;;;7.50;3.88;;;11.50;84.00;;;;;;4941979;28;20038;-93
2021/12/12 08:29:36;;;;;;;6.47;3.75;;;11.50;84.00;;;;;;4965649;28;20045;-94
2021/12/12 08:32:09;;;;;;;8.30;4.18;;;11.50;84.20;;;;;;4975770;28;20066;-93
2021/12/12 08:34:38;;;;;;;8.25;3.65;;;11.50;84.10;;;;;;4968150;28;20034;-94
2021/12/12 08:37:06;;;;;;;8.65;5.35;;;11.60;84.20;;;;;;4966981;28;20507;-94
2021/12/12 08:39:32;;;;;;;9.07;4.40;;;11.50;84.20;;;;;;4979932;28;20038;-94
2021/12/12 08:41:59;;;;;;;9.95;5.95;;;11.60;84.30;;;;;;4970649;28;20117;-93
2021/12/12 08:44:28;;;;;;;7.65;3.88;;;11.50;84.20;;;;;;4959705;28;20118;-94
2021/12/12 08:46:57;;;;;;;9.30;4.03;;;11.50;84.20;;;;;;4957436;28;20082;-93
2021/12/12 08:49:26;;;;;;;13.50;6.95;;;11.50;84.30;;;;;;4975233;28;20046;-93
2021/12/12 08:52:16;;;;;;;9.68;5.35;;;11.50;84.30;;;;;;4963904;28;20512;-93
2021/12/12 08:54:46;;;;;;;8.45;3.90;;;11.50;84.40;;;;;;4952757;28;20057;-93
2021/12/12 08:57:47;;;;;;;8.43;4.85;;;11.50;84.30;;;;;;4974305;28;20026;-93
2021/12/12 09:00:20;;;;;;;7.00;4.00;;;11.50;84.30;;;;;;4963162;28;20038;-93
2021/12/12 09:02:46;;;;;;;12.05;6.80;;;11.60;84.40;;;;;;4970262;28;20045;-96
2021/12/12 09:05:20;;;;;;;7.90;4.35;;;11.50;84.40;;;;;;4966829;28;20029;-93
2021/12/12 09:07:50;;;;;;;7.63;4.32;;;11.60;84.50;;;;;;4965146;28;20038;-94
2021/12/12 09:10:32;;;;;;;6.40;3.58;;;11.60;84.60;;;;;;4952467;28;20035;-94
2021/12/12 09:13:20;;;;;;;8.88;4.47;;;11.60;84.60;;;;;;4980665;28;20018;-94
2021/12/12 09:16:21;;;;;;;6.30;3.78;;;11.60;84.60;;;;;;4978598;28;20407;-92
2021/12/12 09:19:04;;;;;;;8.55;3.95;;;11.60;84.70;;;;;;4957273;28;20035;-95
2021/12/12 09:21:48;;;;;;;9.05;4.55;;;11.60;84.70;;;;;;4972927;28;20129;-94
2021/12/12 09:24:46;;;;;;;8.63;3.67;;;11.60;84.60;;;;;;4991718;28;20469;-94
2021/12/12 09:27:25;;;;;;;7.43;3.75;;;11.60;84.70;;;;;;4964239;28;20237;-95
2021/12/12 09:29:57;;;;;;;8.18;4.10;;;11.60;84.70;;;;;;4992830;28;20050;-92
2021/12/12 09:32:41;;;;;;;9.07;4.70;;;11.60;84.70;;;;;;4963331;28;20124;-94
2021/12/12 09:35:17;;;;;;;7.95;4.35;;;11.60;84.90;;;;;;4970334;28;20101;-94
2021/12/12 09:38:16;;;;;;;7.38;3.95;;;11.60;84.80;;;;;;4962447;28;20514;-94
2021/12/12 09:41:31;;;;;;;7.13;4.00;;;11.60;85.00;;;;;;4951293;28;20046;-95
2021/12/12 09:44:14;;;;;;;5.57;2.80;;;11.70;85.00;;;;;;4983433;28;20114;-93
2021/12/12 09:47:31;;;;;;;6.57;3.08;;;11.70;85.00;;;;;;4985508;28;20397;-94
2021/12/12 09:53:27;;;;;;;6.38;3.72;;;11.70;85.00;;;;;;4983742;28;20040;-94
2021/12/12 09:56:23;;;;;;;5.85;3.50;;;11.70;85.10;;;;;;4988158;28;20041;-92
2021/12/12 09:59:32;;;;;;;6.63;2.72;;;11.70;85.30;;;;;;4985443;28;20462;-94
2021/12/12 10:02:05;;;;;;;6.47;2.90;;;11.70;85.30;;;;;;4990250;28;20454;-94
2021/12/12 10:05:15;;;;;;;7.60;3.35;;;11.70;85.20;;;;;;4981819;28;20023;-95
2021/12/12 10:07:58;;;;;;;6.18;3.63;;;11.70;85.50;;;;;;4929430;28;20046;-94
2021/12/12 10:10:35;;;;;;;6.85;3.55;;;11.70;85.40;;;;;;4985234;28;20128;-95
2021/12/12 10:13:44;;;;;;;6.88;3.42;;;11.70;85.40;;;;;;4968960;28;20404;-95
2021/12/12 10:16:13;;;;;;;5.90;3.03;;;11.70;85.60;;;;;;4987228;28;20049;-92
2021/12/12 10:19:01;;;;;;;7.20;3.83;;;11.70;85.50;;;;;;4983279;28;20030;-95
2021/12/12 10:22:10;;;;;;;6.68;3.35;;;11.70;85.60;;;;;;4972508;28;20053;-94
2021/12/12 10:24:49;;;;;;;8.32;3.90;;;11.70;85.70;;;;;;5003529;28;20037;-95
2021/12/12 10:27:57;;;;;;;8.85;4.18;;;11.70;85.70;;;;;;4985929;28;20294;-95
2021/12/12 10:30:33;;;;;;;8.82;4.50;;;11.70;85.70;;;;;;4968096;28;20526;-95
2021/12/12 10:33:28;;;;;;;9.80;4.18;;;11.80;85.80;;;;;;4991981;28;20026;-96
2021/12/12 10:36:07;;;;;;;8.18;3.85;;;11.80;85.90;;;;;;4966504;28;20080;-95
2021/12/12 10:39:13;;;;;;;6.30;3.55;;;11.80;85.90;;;;;;4989294;28;20080;-94
2021/12/12 10:41:46;;;;;;;5.82;2.88;;;11.80;86.00;;;;;;4982505;28;20038;-95
2021/12/12 10:44:25;;;;;;;6.78;3.50;;;11.80;85.90;;;;;;4971003;28;20694;-94
2021/12/12 10:47:19;;;;;;;8.35;4.28;;;11.80;86.00;;;;;;4994099;28;20073;-94
2021/12/12 10:51:02;;;;;;;11.23;4.22;;;11.80;86.20;;;;;;4999377;28;20353;-93
2021/12/12 10:53:57;;;;;;;9.50;4.28;;;11.80;86.20;;;;;;4940352;28;20049;-94
2021/12/12 10:57:03;;;;;;;9.25;4.35;;;12.10;86.40;;;;;;4989845;28;20043;-96
2021/12/12 10:59:48;;;;;;;12.40;4.63;;;11.80;86.20;;;;;;4979864;28;20048;-95
2021/12/12 11:02:20;;;;;;;8.82;4.00;;;11.90;86.20;;;;;;4986681;28;20080;-95
2021/12/12 11:04:52;;;;;;;10.00;5.20;;;12.20;86.40;;;;;;4982129;28;20285;-94
2021/12/12 11:07:44;;;;;;;7.65;4.25;;;11.90;86.30;;;;;;4975345;28;20030;-94
2021/12/12 11:10:26;;;;;;;7.35;3.83;;;11.90;86.40;;;;;;5003346;28;20042;-95
2021/12/12 11:13:05;;;;;;;8.77;3.45;;;11.90;86.40;;;;;;4968621;28;20380;-96
2021/12/12 11:15:55;;;;;;;8.48;3.58;;;11.90;86.40;;;;;;4984296;28;20387;-94
2021/12/12 11:18:35;;;;;;;10.98;5.00;;;11.90;86.50;;;;;;4968538;28;20026;-92
2021/12/12 11:21:32;;;;;;;12.30;5.43;;;11.90;86.60;;;;;;4982206;28;20475;-95
2021/12/12 11:24:05;;;;;;;10.23;4.82;;;11.90;86.60;;;;;;4983850;28;20033;-95
2021/12/12 11:26:34;;;;;;;7.32;3.90;;;12.00;86.60;;;;;;5001272;28;20038;-96
2021/12/12 11:29:15;;;;;;;6.68;3.63;;;12.00;86.80;;;;;;4989354;28;20089;-94
2021/12/12 11:32:07;;;;;;;10.50;3.75;;;12.00;86.80;;;;;;4986287;28;20042;-93
2021/12/12 11:34:33;;;;;;;8.73;3.85;;;12.00;86.90;;;;;;5019733;28;20018;-94
2021/12/12 11:37:41;;;;;;;6.03;3.00;;;12.00;86.80;;;;;;4982719;28;20042;-94
2021/12/12 11:40:19;;;;;;;7.65;2.88;;;12.00;87.00;;;;;;4992550;28;20072;-95
2021/12/12 11:43:35;;;;;;;6.97;3.45;;;12.00;86.90;;;;;;5000279;28;20128;-93
2021/12/12 11:46:10;;;;;;;6.95;3.50;;;12.00;87.00;;;;;;4990715;28;20132;-95
2021/12/12 11:48:53;;;;;;;;;;;12.20;87.10;;;;;;4968451;28;20037;-96
2021/12/12 11:51:35;;;;;;;8.25;4.18;;;12.10;87.00;;;;;;4984070;28;20410;-93
2021/12/12 11:54:42;;;;;;;10.60;4.43;;;12.10;87.00;;;;;;4989070;28;20057;-94
2021/12/12 11:57:31;;;;;;;9.02;5.28;;;12.10;87.10;;;;;;4970960;28;20527;-95
2021/12/12 12:00:09;;;;;;;11.23;4.63;;;12.10;87.20;;;;;;4972787;28;20050;-95
2021/12/12 12:02:46;;;;;;;12.63;4.85;;;12.10;87.10;;;;;;4992755;28;20594;-92
2021/12/12 12:05:46;;;;;;;7.93;3.80;;;12.10;87.30;;;;;;5000914;28;20495;-95
2021/12/12 12:08:39;;;;;;;7.57;3.88;;;12.10;87.40;;;;;;4981005;28;20022;-95
2021/12/12 12:11:23;;;;;;;9.75;3.50;;;12.10;87.40;;;;;;4996130;28;20038;-92
2021/12/12 12:13:57;;;;;;;8.75;4.07;;;12.20;87.40;;;;;;4992058;28;20056;-96
2021/12/12 12:16:48;;;;;;;5.82;3.63;;;12.20;87.50;;;;;;5002371;28;20112;-93
2021/12/12 12:19:29;;;;;;;8.88;4.88;;;12.20;87.50;;;;;;4979352;28;20026;-95
2021/12/12 12:22:51;;;;;;;10.05;5.00;;;12.20;87.60;;;;;;4967493;28;20038;-95
2021/12/12 12:28:50;;;;;;;7.47;4.38;;;12.30;87.60;;;;;;4978767;28;20049;-95
2021/12/12 12:31:36;;;;;;;10.45;5.75;;;12.20;87.60;;;;;;4948679;28;20284;-95
2021/12/12 12:34:58;;;;;;;7.32;4.13;;;12.30;87.80;;;;;;4979232;28;20042;-95
2021/12/12 12:38:20;;;;;;;8.00;3.90;;;12.30;87.80;;;;;;4952750;28;20027;-95
2021/12/12 12:41:35;;;;;;;7.22;3.00;;;12.30;87.90;;;;;;4976854;28;20137;-93
2021/12/12 12:44:41;;;;;;;5.75;3.10;;;12.30;87.90;;;;;;4978749;28;20057;-94
2021/12/12 12:47:40;;;;;;;7.13;3.10;;;12.50;88.10;;;;;;4976850;28;20038;-93
2021/12/12 12:51:03;;;;;;;5.15;2.60;;;12.30;88.00;;;;;;4976889;28;20132;-93
2021/12/12 12:54:28;;;;;;;5.72;2.83;;;12.30;88.10;;;;;;4913938;28;20046;-95
2021/12/12 12:57:29;;;;;;;6.57;2.90;;;12.30;88.20;;;;;;4962071;28;20034;-94
2021/12/12 13:00:08;;;;;;;7.60;3.25;;;12.30;88.20;;;;;;4954598;28;20030;-96
2021/12/12 13:03:05;;;;;;;6.35;2.97;;;12.40;88.20;;;;;;4971643;28;20118;-92
2021/12/12 13:05:49;;;;;;;6.80;3.80;;;12.40;88.40;;;;;;4970744;28;20045;-96
2021/12/12 13:09:00;;;;;;;7.55;3.63;;;12.40;88.40;;;;;;4980145;28;20027;-94
2021/12/12 13:12:02;;;;;;;7.05;3.10;;;12.40;88.50;;;;;;4978592;28;20184;-95
2021/12/12 13:15:07;;;;;;;5.00;2.30;;;12.40;88.50;;;;;;4959323;28;20149;-95
2021/12/12 13:17:57;;;;;;;5.80;2.92;;;12.50;88.60;;;;;;4961371;28;20038;-96
2021/12/12 13:20:43;;;;;;;7.05;3.40;;;12.50;88.60;;;;;;4980544;28;20053;-95
2021/12/12 13:23:41;;;;;;;4.95;2.55;;;12.50;88.70;;;;;;4971907;28;20449;-94
2021/12/12 13:26:18;;;;;;;4.97;2.63;;;12.50;88.80;;;;;;4990825;28;20502;-92
2021/12/12 13:29:32;;;;;;;6.03;2.72;;;12.50;88.70;;;;;;4960338;28;20030;-95
2021/12/12 13:32:21;;;;;;;8.23;2.78;;;12.50;88.90;;;;;;4932281;28;20042;-95
2021/12/12 13:35:12;;;;;;;7.35;3.00;;;12.50;88.90;;;;;;4981039;28;20034;-96
2021/12/12 13:38:18;;;;;;;4.32;2.40;;;12.60;89.00;;;;;;4966415;28;20115;-94
2021/12/12 13:41:07;;;;;;;6.28;2.65;;;12.70;89.00;;;;;;4962812;28;20154;-96
2021/12/12 13:43:41;;;;;;;5.25;2.10;;;12.60;89.00;;;;;;4957754;28;20053;-95
2021/12/12 13:46:53;;;;;;;7.75;2.72;;;12.60;89.00;;;;;;4965290;28;20038;-92
2021/12/12 13:49:26;;;;;;;4.88;2.33;;;12.60;89.10;;;;;;4937822;28;20061;-95
2021/12/12 13:52:31;;;;;;;4.82;2.80;;;12.70;89.10;;;;;;4982274;28;20027;-94
2021/12/12 13:55:50;;;;;;;6.15;2.95;;;12.70;89.20;;;;;;4949960;28;20149;-96
2021/12/12 13:58:52;;;;;;;6.35;2.78;;;12.70;89.20;;;;;;4957192;28;20042;-96
2021/12/12 14:01:30;;;;;;;7.25;3.00;;;12.70;89.20;;;;;;4966541;28;20045;-95
2021/12/12 14:04:06;;;;;;;6.80;3.10;;;12.70;89.20;;;;;;4945448;28;20042;-95
2021/12/12 14:06:33;;;;;;;7.40;2.67;;;12.70;89.20;;;;;;4962704;28;20044;-96